Time;durP1;ratioP1;P1;durP2;ratioP2;P2;SDS_P1;SDS_P2;PMS_P1;PMS_P2;Temp;Humidity;BMP_temperature;BMP_pressure;BME280_temperature;BME280_humidity;BME280_pressure;Samples;Min_cycle;Max_cycle;Signal;HPM_P1;HPM_P2
2022/12/16 00:02:21;;;;;;;149.15;58.50;;;-1.00;74.90;;;;;;4944937;28;114432;-79
2022/12/16 00:04:48;;;;;;;151.40;57.47;;;-1.00;74.80;;;;;;4934864;28;115060;-78
2022/12/16 00:07:16;;;;;;;151.65;56.15;;;-1.00;74.80;;;;;;4932269;28;115259;-78
2022/12/16 00:09:43;;;;;;;148.32;57.80;;;-0.90;74.80;;;;;;4924824;28;114365;-77
2022/12/16 00:12:10;;;;;;;170.50;64.10;;;-0.90;74.80;;;;;;4940984;28;114800;-77
2022/12/16 00:14:38;;;;;;;153.52;58.80;;;-0.90;74.70;;;;;;4932417;28;115665;-78
2022/12/16 00:17:05;;;;;;;152.25;58.88;;;-0.90;74.70;;;;;;4926391;28;114703;-78
2022/12/16 00:19:32;;;;;;;164.63;61.80;;;-0.90;74.70;;;;;;4939934;28;114527;-78
2022/12/16 00:21:59;;;;;;;139.40;53.45;;;-0.90;74.60;;;;;;4930211;28;115708;-78
2022/12/16 00:24:26;;;;;;;154.05;59.58;;;-1.00;74.60;;;;;;4924919;28;115287;-78
2022/12/16 00:26:54;;;;;;;135.85;56.55;;;-0.90;74.70;;;;;;4925582;28;116748;-79
2022/12/16 00:29:21;;;;;;;149.85;57.75;;;-0.90;74.70;;;;;;4926739;28;114350;-79
2022/12/16 00:31:48;;;;;;;156.18;61.72;;;-0.90;74.60;;;;;;4926391;28;114532;-79
2022/12/16 00:34:17;;;;;;;138.05;55.67;;;-0.90;74.70;;;;;;4922723;28;115082;-78
2022/12/16 00:36:45;;;;;;;150.85;62.03;;;-0.80;74.70;;;;;;4926909;28;116333;-79
2022/12/16 00:39:12;;;;;;;154.13;60.88;;;-0.70;74.60;;;;;;4930464;28;114509;-79
2022/12/16 00:41:39;;;;;;;138.05;53.00;;;-0.70;74.30;;;;;;4941586;28;114554;-78
2022/12/16 00:44:06;;;;;;;149.50;56.47;;;-0.70;74.20;;;;;;4924505;28;115329;-79
2022/12/16 00:46:34;;;;;;;138.00;53.75;;;-0.80;74.10;;;;;;4939089;28;114809;-78
2022/12/16 00:49:01;;;;;;;137.05;52.78;;;-0.80;74.20;;;;;;4925388;28;114561;-79
2022/12/16 00:51:28;;;;;;;163.77;60.13;;;-0.80;74.30;;;;;;4931585;28;115742;-79
2022/12/16 00:53:56;;;;;;;144.68;55.20;;;-0.80;74.20;;;;;;4924772;28;115240;-79
2022/12/16 00:56:23;;;;;;;133.00;54.47;;;-0.90;74.10;;;;;;4906596;28;114667;-79
2022/12/16 00:58:51;;;;;;;152.55;59.20;;;-0.90;74.20;;;;;;4932393;28;115472;-79
2022/12/16 01:01:18;;;;;;;151.18;55.03;;;-0.90;74.30;;;;;;4926104;28;114483;-79
2022/12/16 01:03:45;;;;;;;148.43;58.35;;;-0.90;74.30;;;;;;4938964;28;115169;-79
2022/12/16 01:06:15;;;;;;;148.57;58.47;;;-0.90;74.30;;;;;;4924657;28;114731;-78
2022/12/16 01:08:49;;;;;;;145.80;56.75;;;-0.90;74.30;;;;;;4927100;28;114587;-80
2022/12/16 01:11:18;;;;;;;135.15;52.35;;;-1.00;74.30;;;;;;4915713;28;114461;-79
2022/12/16 01:13:45;;;;;;;153.48;58.50;;;-1.00;74.30;;;;;;4932703;28;115265;-79
2022/12/16 01:16:14;;;;;;;138.43;55.50;;;-1.00;74.50;;;;;;4906700;28;114724;-78
2022/12/16 01:18:41;;;;;;;131.50;54.55;;;-1.00;74.50;;;;;;4938487;28;114563;-78
2022/12/16 01:21:09;;;;;;;138.25;55.15;;;-0.90;74.50;;;;;;4927815;28;114435;-78
2022/12/16 01:23:36;;;;;;;146.82;58.50;;;-0.90;74.60;;;;;;4933505;28;115202;-79
2022/12/16 01:26:04;;;;;;;130.18;50.28;;;-0.90;74.60;;;;;;4924422;28;114747;-79
2022/12/16 01:28:32;;;;;;;146.75;55.65;;;-0.90;74.60;;;;;;4922890;28;114546;-78
2022/12/16 01:31:02;;;;;;;140.95;58.50;;;-0.90;74.50;;;;;;4922821;28;114483;-79
2022/12/16 01:33:31;;;;;;;135.52;53.50;;;-0.90;74.40;;;;;;4922415;28;115238;-79
2022/12/16 01:36:05;;;;;;;139.70;52.80;;;-0.90;74.40;;;;;;4937326;28;114675;-78
2022/12/16 01:38:36;;;;;;;137.55;53.75;;;-0.90;74.50;;;;;;4925939;28;116409;-78
2022/12/16 01:41:03;;;;;;;137.55;53.35;;;-0.90;74.50;;;;;;4942504;28;114456;-79
2022/12/16 01:43:33;;;;;;;160.20;62.90;;;-0.80;74.50;;;;;;4927272;28;114908;-79
2022/12/16 01:46:14;;;;;;;149.90;60.20;;;-0.80;74.40;;;;;;4952599;28;117495;-79
2022/12/16 01:49:05;;;;;;;143.07;55.70;;;-0.90;74.40;;;;;;4940709;28;114406;-79
2022/12/16 01:51:36;;;;;;;146.10;55.05;;;-0.90;74.40;;;;;;4927528;28;114617;-78
2022/12/16 01:54:23;;;;;;;146.00;54.85;;;-0.90;74.40;;;;;;4945844;28;115178;-78
2022/12/16 01:57:15;;;;;;;147.45;57.25;;;-0.90;74.60;;;;;;4926262;28;116022;-79
2022/12/16 01:59:43;;;;;;;155.55;55.97;;;-0.90;74.60;;;;;;4929281;28;114827;-78
2022/12/16 02:02:11;;;;;;;140.60;54.58;;;-1.00;74.40;;;;;;4929741;28;114502;-78
2022/12/16 02:05:19;;;;;;;172.60;61.17;;;-1.00;74.40;;;;;;4932597;28;115631;-78
2022/12/16 02:07:26;;;;;;;155.20;57.85;;;-1.10;74.40;;;;;;4930272;28;115847;-79
2022/12/16 02:09:53;;;;;;;160.77;60.65;;;-1.10;74.30;;;;;;4941829;28;114436;-78
2022/12/16 02:12:51;;;;;;;169.32;61.13;;;-1.20;74.40;;;;;;4927336;28;114503;-79
2022/12/16 02:15:51;;;;;;;152.93;58.80;;;-1.20;74.50;;;;;;4925495;28;116814;-78
2022/12/16 02:18:44;;;;;;;165.57;60.10;;;-1.20;74.60;;;;;;4932048;28;115087;-79
2022/12/16 02:21:41;;;;;;;155.30;54.15;;;-1.20;74.70;;;;;;4942032;28;114391;-78
2022/12/16 02:24:12;;;;;;;147.20;57.10;;;-1.20;74.80;;;;;;4930927;28;114798;-79
2022/12/16 02:27:27;;;;;;;139.73;53.20;;;-1.20;74.80;;;;;;4922990;28;116359;-79
2022/12/16 02:30:05;;;;;;;155.25;57.38;;;-1.10;75.00;;;;;;4933718;28;114753;-79
2022/12/16 02:32:44;;;;;;;155.10;57.58;;;-1.10;75.00;;;;;;4928433;28;115627;-79
2022/12/16 02:35:23;;;;;;;151.60;55.72;;;-1.00;75.00;;;;;;4927928;28;114381;-79
2022/12/16 02:38:36;;;;;;;173.27;62.80;;;-1.00;74.90;;;;;;4928719;28;116739;-79
2022/12/16 02:41:28;;;;;;;139.55;55.05;;;-1.00;74.80;;;;;;4929473;28;114853;-77
2022/12/16 02:44:03;;;;;;;147.52;56.92;;;-1.10;74.70;;;;;;4929143;28;114468;-77
2022/12/16 02:46:32;;;;;;;140.73;55.13;;;-1.10;74.60;;;;;;4926347;28;114910;-78
2022/12/16 02:49:29;;;;;;;152.10;58.83;;;-1.10;74.60;;;;;;4941237;28;118297;-78
2022/12/16 02:51:57;;;;;;;141.98;54.60;;;-1.10;74.80;;;;;;4932890;28;115828;-78
2022/12/16 02:54:24;;;;;;;146.07;56.30;;;-1.20;74.70;;;;;;4937854;28;114721;-78
2022/12/16 02:57:19;;;;;;;140.85;58.28;;;-1.20;74.80;;;;;;4927694;28;115890;-78
2022/12/16 03:00:06;;;;;;;144.25;56.85;;;-1.20;75.00;;;;;;4940433;28;116475;-78
2022/12/16 03:03:28;;;;;;;145.70;58.25;;;-1.20;74.80;;;;;;4925707;28;115956;-78
2022/12/16 03:05:55;;;;;;;147.68;59.15;;;-1.20;74.70;;;;;;4900234;28;114855;-79
2022/12/16 03:08:30;;;;;;;141.95;54.80;;;-1.30;74.70;;;;;;4910872;28;114831;-78
2022/12/16 03:11:03;;;;;;;147.65;57.78;;;-1.20;74.80;;;;;;4940543;28;115193;-78
2022/12/16 03:13:38;;;;;;;129.90;55.47;;;-1.20;74.80;;;;;;4930570;28;114665;-78
2022/12/16 03:16:06;;;;;;;150.57;60.92;;;-1.20;74.90;;;;;;4927363;28;114888;-78
2022/12/16 03:18:34;;;;;;;155.40;58.58;;;-1.20;74.80;;;;;;4910157;28;114833;-78
2022/12/16 03:21:04;;;;;;;135.77;55.00;;;-1.20;74.70;;;;;;4939890;28;116093;-79
2022/12/16 03:23:56;;;;;;;146.35;59.22;;;-1.20;74.80;;;;;;4925840;28;114814;-78
2022/12/16 03:26:30;;;;;;;153.13;59.35;;;-1.20;74.80;;;;;;4943283;28;114686;-78
2022/12/16 03:29:27;;;;;;;137.15;55.30;;;-1.10;74.80;;;;;;4925485;28;114651;-78
2022/12/16 03:32:00;;;;;;;125.07;52.35;;;-1.20;74.80;;;;;;4920963;28;115606;-78
2022/12/16 03:34:52;;;;;;;130.75;53.47;;;-1.20;74.60;;;;;;4917845;28;114911;-79
2022/12/16 03:37:19;;;;;;;141.20;55.15;;;-1.20;74.60;;;;;;4931021;28;114444;-79
2022/12/16 03:39:52;;;;;;;142.93;56.47;;;-1.20;74.70;;;;;;4910954;28;114312;-78
2022/12/16 03:42:19;;;;;;;144.57;56.05;;;-1.20;74.80;;;;;;4920442;28;116306;-78
2022/12/16 03:44:46;;;;;;;155.52;57.20;;;-1.10;74.80;;;;;;4926698;28;114598;-78
2022/12/16 03:47:13;;;;;;;135.13;51.40;;;-1.10;74.80;;;;;;4938492;28;114338;-78
2022/12/16 03:49:49;;;;;;;141.02;55.45;;;-1.00;74.70;;;;;;4938025;28;114366;-78
2022/12/16 03:52:16;;;;;;;145.65;57.03;;;-0.90;74.60;;;;;;4927559;28;116341;-78
2022/12/16 03:54:44;;;;;;;146.65;53.10;;;-0.90;74.50;;;;;;4939326;28;114710;-78
2022/12/16 03:57:11;;;;;;;138.05;54.47;;;-0.80;74.40;;;;;;4943377;28;114552;-78
2022/12/16 03:59:44;;;;;;;134.00;54.53;;;-0.80;74.20;;;;;;4931167;28;114535;-79
2022/12/16 04:02:14;;;;;;;131.63;53.38;;;-0.80;74.10;;;;;;4941272;28;115418;-79
2022/12/16 04:04:42;;;;;;;133.13;54.70;;;-0.70;74.10;;;;;;4939814;28;114687;-79
2022/12/16 04:07:23;;;;;;;122.25;51.25;;;-0.80;74.00;;;;;;4928642;28;114855;-78
2022/12/16 04:09:51;;;;;;;121.15;51.42;;;-0.80;74.00;;;;;;4938515;28;116488;-79
2022/12/16 04:26:14;;;;;;;120.57;51.63;;;-0.80;73.80;;;;;;4943467;28;115348;-78
2022/12/16 04:28:41;;;;;;;115.13;50.42;;;-0.80;73.80;;;;;;4937277;28;114319;-78
2022/12/16 04:31:08;;;;;;;120.53;49.67;;;-0.80;73.80;;;;;;4944939;28;114957;-78
